Time;durP1;ratioP1;P1;durP2;ratioP2;P2;SDS_P1;SDS_P2;PMS_P1;PMS_P2;Temp;Humidity;BMP_temperature;BMP_pressure;BME280_temperature;BME280_humidity;BME280_pressure;Samples;Min_cycle;Max_cycle;Signal;HPM_P1;HPM_P2
2023/05/09 00:01:35;;;;;;;14.18;12.77;;;;;;;;;;5056616;28;20025;-58
2023/05/09 00:04:01;;;;;;;16.80;15.00;;;;;;;;;;5056528;28;20052;-58
2023/05/09 00:06:27;;;;;;;14.52;12.63;;;;;;;;;;5056859;28;20021;-58
2023/05/09 00:08:54;;;;;;;15.18;13.75;;;;;;;;;;5055056;28;20021;-58
2023/05/09 00:11:23;;;;;;;15.20;13.75;;;;;;;;;;5055960;28;20474;-58
2023/05/09 00:13:50;;;;;;;15.82;13.60;;;;;;;;;;5055880;28;20040;-58
2023/05/09 00:16:16;;;;;;;14.40;13.02;;;;;;;;;;5056796;28;20053;-58
2023/05/09 00:18:43;;;;;;;17.52;15.10;;;;;;;;;;5056060;28;20061;-58
2023/05/09 00:21:10;;;;;;;15.90;13.38;;;;;;;;;;5055743;28;20059;-58
2023/05/09 00:23:36;;;;;;;17.77;14.85;;;;;;;;;;5055659;28;20390;-58
2023/05/09 00:26:02;;;;;;;16.45;14.77;;;;;;;;;;5055952;28;20387;-58
2023/05/09 00:28:28;;;;;;;15.93;14.27;;;;;;;;;;5055616;28;20024;-58
2023/05/09 00:30:54;;;;;;;19.23;14.38;;;;;;;;;;5055609;28;20029;-58
2023/05/09 00:33:20;;;;;;;17.08;14.95;;;;;;;;;;5055748;28;20025;-58
2023/05/09 00:35:46;;;;;;;18.83;14.77;;;;;;;;;;5055751;28;20033;-58
2023/05/09 00:38:12;;;;;;;17.08;14.63;;;;;;;;;;5055074;28;20079;-58
2023/05/09 00:40:38;;;;;;;17.23;15.40;;;;;;;;;;5055426;28;20025;-58
2023/05/09 00:43:04;;;;;;;16.10;14.45;;;;;;;;;;5055708;28;20443;-58
2023/05/09 00:45:30;;;;;;;15.77;13.95;;;;;;;;;;5055603;28;20029;-59
2023/05/09 00:47:57;;;;;;;15.85;14.15;;;;;;;;;;5055564;28;20021;-58
2023/05/09 00:50:26;;;;;;;16.08;14.43;;;;;;;;;;5055174;28;20128;-58
2023/05/09 00:52:52;;;;;;;15.63;14.02;;;;;;;;;;5054863;28;20462;-58
2023/05/09 00:55:18;;;;;;;15.23;13.63;;;;;;;;;;5055362;28;20108;-58
2023/05/09 00:57:44;;;;;;;14.93;13.25;;;;;;;;;;5055648;28;20363;-58
2023/05/09 01:00:15;;;;;;;15.57;13.20;;;;;;;;;;5055561;28;20025;-58
2023/05/09 01:02:42;;;;;;;15.93;13.48;;;;;;;;;;5054877;28;20036;-58
2023/05/09 01:05:08;;;;;;;14.63;12.95;;;;;;;;;;5055226;28;20044;-58
2023/05/09 01:07:43;;;;;;;14.95;13.27;;;;;;;;;;5055390;28;20470;-58
2023/05/09 01:10:28;;;;;;;14.23;12.75;;;;;;;;;;5055066;28;20028;-58
2023/05/09 01:12:58;;;;;;;15.50;13.90;;;;;;;;;;5054813;28;20036;-58
2023/05/09 01:15:36;;;;;;;15.07;13.57;;;;;;;;;;5054684;28;20483;-58
2023/05/09 01:18:08;;;;;;;15.25;13.68;;;;;;;;;;5054608;28;20032;-58
2023/05/09 01:20:37;;;;;;;15.15;13.57;;;;;;;;;;5053901;28;20055;-58
2023/05/09 01:23:03;;;;;;;16.05;14.38;;;;;;;;;;5055387;28;20032;-58
2023/05/09 01:25:41;;;;;;;15.70;14.10;;;;;;;;;;5054872;28;20374;-58
2023/05/09 01:28:18;;;;;;;15.00;13.50;;;;;;;;;;5054487;28;20079;-58
2023/05/09 01:30:46;;;;;;;15.90;14.02;;;;;;;;;;5054968;28;20337;-58
2023/05/09 01:33:15;;;;;;;15.68;14.07;;;;;;;;;;5054972;28;20035;-58
2023/05/09 01:35:44;;;;;;;15.63;14.00;;;;;;;;;;5054581;28;20388;-58
2023/05/09 01:38:12;;;;;;;15.27;13.70;;;;;;;;;;5054290;28;20016;-58
2023/05/09 01:40:39;;;;;;;16.58;14.68;;;;;;;;;;5054209;28;20112;-58
2023/05/09 01:43:08;;;;;;;14.98;13.48;;;;;;;;;;5054114;28;20028;-58
2023/05/09 01:45:35;;;;;;;14.05;12.55;;;;;;;;;;5054774;28;20033;-58
2023/05/09 01:48:02;;;;;;;17.08;15.27;;;;;;;;;;5054940;28;20052;-58
2023/05/09 01:50:29;;;;;;;17.27;14.07;;;;;;;;;;5054491;28;20024;-58
2023/05/09 01:52:56;;;;;;;16.25;13.40;;;;;;;;;;5054011;28;20017;-58
2023/05/09 01:55:25;;;;;;;14.93;12.93;;;;;;;;;;5053965;28;20040;-58
2023/05/09 01:57:53;;;;;;;16.50;14.88;;;;;;;;;;5054090;28;20357;-58
2023/05/09 02:00:19;;;;;;;16.98;15.27;;;;;;;;;;5053945;28;20029;-58
2023/05/09 02:02:45;;;;;;;15.32;13.75;;;;;;;;;;5053862;28;20036;-58
2023/05/09 02:05:12;;;;;;;15.93;13.77;;;;;;;;;;5053847;28;20036;-58
2023/05/09 02:07:38;;;;;;;17.23;14.85;;;;;;;;;;5054188;28;20065;-58
2023/05/09 02:10:05;;;;;;;17.73;14.45;;;;;;;;;;5053583;28;20052;-58
2023/05/09 02:12:31;;;;;;;17.38;15.57;;;;;;;;;;5053691;28;20060;-58
2023/05/09 02:14:57;;;;;;;19.70;15.52;;;;;;;;;;5053758;28;20144;-58
2023/05/09 02:17:23;;;;;;;16.17;14.55;;;;;;;;;;5054061;28;20450;-58
2023/05/09 02:19:49;;;;;;;15.77;14.25;;;;;;;;;;5054262;28;20394;-58
2023/05/09 02:22:15;;;;;;;16.35;14.70;;;;;;;;;;5054404;28;20040;-58
2023/05/09 02:24:43;;;;;;;15.98;14.18;;;;;;;;;;5053603;28;20029;-58
2023/05/09 02:27:09;;;;;;;15.85;14.25;;;;;;;;;;5054427;28;20029;-58
2023/05/09 02:29:39;;;;;;;16.88;15.15;;;;;;;;;;5053611;28;20029;-58
2023/05/09 02:32:25;;;;;;;16.58;14.63;;;;;;;;;;5054983;28;20127;-58
2023/05/09 02:34:52;;;;;;;17.33;15.52;;;;;;;;;;5057968;28;20459;-58
2023/05/09 02:37:18;;;;;;;16.85;15.15;;;;;;;;;;5058282;28;20028;-58
2023/05/09 02:39:44;;;;;;;18.08;16.38;;;;;;;;;;5057736;28;20021;-58
2023/05/09 02:42:11;;;;;;;19.08;15.35;;;;;;;;;;5058192;28;20060;-58
2023/05/09 02:44:40;;;;;;;21.27;15.05;;;;;;;;;;5058172;28;20554;-58
2023/05/09 02:47:06;;;;;;;17.73;14.35;;;;;;;;;;5057573;28;20040;-58
2023/05/09 02:49:33;;;;;;;17.00;15.30;;;;;;;;;;5057521;28;20053;-58
2023/05/09 02:52:00;;;;;;;15.77;14.15;;;;;;;;;;5057406;28;20033;-58
2023/05/09 02:54:26;;;;;;;17.33;15.15;;;;;;;;;;5057359;28;20025;-58
2023/05/09 02:56:52;;;;;;;19.20;14.48;;;;;;;;;;5057912;28;20029;-58
2023/05/09 02:59:19;;;;;;;17.23;15.30;;;;;;;;;;5057328;28;20116;-58
2023/05/09 03:01:45;;;;;;;18.27;16.38;;;;;;;;;;5058107;28;20434;-58
2023/05/09 03:04:11;;;;;;;17.83;15.30;;;;;;;;;;5057305;28;20029;-58
2023/05/09 03:06:37;;;;;;;16.15;14.55;;;;;;;;;;5057687;28;20430;-58
2023/05/09 03:09:03;;;;;;;15.90;14.10;;;;;;;;;;5056908;28;20455;-58
2023/05/09 03:11:29;;;;;;;17.98;16.15;;;;;;;;;;5056853;28;20025;-58
2023/05/09 03:13:56;;;;;;;18.88;16.88;;;;;;;;;;5057002;28;20041;-58
2023/05/09 03:16:22;;;;;;;18.58;15.50;;;;;;;;;;5057971;28;20060;-58
2023/05/09 03:18:47;;;;;;;16.55;14.90;;;;;;;;;;5057457;28;20033;-58
2023/05/09 03:21:13;;;;;;;18.60;15.40;;;;;;;;;;5056884;28;20036;-58
2023/05/09 03:23:39;;;;;;;17.65;15.57;;;;;;;;;;5056871;28;20410;-58
2023/05/09 03:26:05;;;;;;;21.45;17.30;;;;;;;;;;5057649;28;20037;-58
2023/05/09 03:28:31;;;;;;;18.60;15.70;;;;;;;;;;5056373;28;20386;-58
2023/05/09 03:30:57;;;;;;;17.52;15.65;;;;;;;;;;5056716;28;20528;-58
2023/05/09 03:33:23;;;;;;;18.85;16.25;;;;;;;;;;5056894;28;20459;-58
2023/05/09 03:35:49;;;;;;;19.00;16.98;;;;;;;;;;5057086;28;20068;-58
2023/05/09 03:38:15;;;;;;;18.85;16.38;;;;;;;;;;5056666;28;20091;-58
2023/05/09 03:40:41;;;;;;;17.27;15.30;;;;;;;;;;5056648;28;20032;-58
2023/05/09 03:43:07;;;;;;;17.80;15.48;;;;;;;;;;5056237;28;20111;-58
2023/05/09 03:45:34;;;;;;;17.65;15.82;;;;;;;;;;5056734;28;20037;-58
2023/05/09 03:48:04;;;;;;;15.63;14.13;;;;;;;;;;5056318;28;20107;-58
2023/05/09 03:50:30;;;;;;;19.38;15.30;;;;;;;;;;5056711;28;20108;-58
2023/05/09 03:52:56;;;;;;;17.70;15.93;;;;;;;;;;5056351;28;20087;-58
2023/05/09 03:55:22;;;;;;;17.70;15.25;;;;;;;;;;5056297;28;20068;-58
2023/05/09 03:57:48;;;;;;;18.95;16.85;;;;;;;;;;5056535;28;20527;-58
2023/05/09 04:00:14;;;;;;;17.67;15.88;;;;;;;;;;5056243;28;20459;-58
2023/05/09 04:02:41;;;;;;;18.85;16.38;;;;;;;;;;5056816;28;20103;-58
2023/05/09 04:05:07;;;;;;;20.25;16.05;;;;;;;;;;5056168;28;20029;-58
2023/05/09 04:07:33;;;;;;;15.25;13.63;;;;;;;;;;5056494;28;20103;-58
2023/05/09 04:09:59;;;;;;;16.50;14.82;;;;;;;;;;5056022;28;20025;-58
2023/05/09 04:12:25;;;;;;;15.57;13.90;;;;;;;;;;5055996;28;20029;-58
2023/05/09 04:14:51;;;;;;;16.20;13.85;;;;;;;;;;5056035;28;20137;-58
2023/05/09 04:17:17;;;;;;;15.93;14.25;;;;;;;;;;5055957;28;20056;-58
2023/05/09 04:19:43;;;;;;;15.73;14.15;;;;;;;;;;5055925;28;20119;-58
2023/05/09 04:22:09;;;;;;;15.95;14.40;;;;;;;;;;5055628;28;20025;-58
2023/05/09 04:24:35;;;;;;;22.70;14.57;;;;;;;;;;5056098;28;20533;-58
2023/05/09 04:27:01;;;;;;;16.65;14.88;;;;;;;;;;5056452;28;20079;-58
2023/05/09 04:29:27;;;;;;;16.20;14.48;;;;;;;;;;5055450;28;20425;-58
2023/05/09 04:31:53;;;;;;;15.80;14.02;;;;;;;;;;5055661;28;20029;-58
2023/05/09 04:34:19;;;;;;;16.27;14.55;;;;;;;;;;5055673;28;20374;-58
2023/05/09 04:36:45;;;;;;;17.50;15.68;;;;;;;;;;5056045;28;20041;-58
2023/05/09 04:39:11;;;;;;;15.75;14.10;;;;;;;;;;5055574;28;20029;-58
2023/05/09 04:41:37;;;;;;;16.52;14.80;;;;;;;;;;5056273;28;20024;-58
2023/05/09 04:44:04;;;;;;;17.60;15.75;;;;;;;;;;5055431;28;20374;-58
2023/05/09 04:46:30;;;;;;;19.50;17.20;;;;;;;;;;5055401;28;20055;-58
2023/05/09 04:48:56;;;;;;;18.17;16.30;;;;;;;;;;5055629;28;20060;-58
2023/05/09 04:51:22;;;;;;;17.02;15.20;;;;;;;;;;5055224;28;20053;-58
2023/05/09 04:53:48;;;;;;;17.38;15.55;;;;;;;;;;5055217;28;20509;-58
2023/05/09 04:56:13;;;;;;;16.40;14.50;;;;;;;;;;5055192;28;20044;-58
2023/05/09 04:58:40;;;;;;;18.55;16.58;;;;;;;;;;5055107;28;20032;-58
2023/05/09 05:01:06;;;;;;;16.70;14.85;;;;;;;;;;5055103;28;20412;-58
2023/05/09 05:03:32;;;;;;;16.75;14.18;;;;;;;;;;5055287;28;20057;-58
2023/05/09 05:05:58;;;;;;;16.42;13.45;;;;;;;;;;5055412;28;20025;-58
2023/05/09 05:08:24;;;;;;;15.75;13.90;;;;;;;;;;5054955;28;20029;-58
2023/05/09 05:10:50;;;;;;;17.63;15.82;;;;;;;;;;5055007;28;20483;-58
2023/05/09 05:13:16;;;;;;;17.77;15.85;;;;;;;;;;5055065;28;20029;-58
2023/05/09 05:15:42;;;;;;;19.45;15.52;;;;;;;;;;5054502;28;20198;-58
2023/05/09 05:18:09;;;;;;;17.58;14.45;;;;;;;;;;5054752;28;20380;-58
2023/05/09 05:20:35;;;;;;;18.15;15.25;;;;;;;;;;5054759;28;20032;-58
2023/05/09 05:23:01;;;;;;;18.83;16.45;;;;;;;;;;5054723;28;20025;-58
2023/05/09 05:25:27;;;;;;;18.30;15.68;;;;;;;;;;5054302;28;20047;-58
2023/05/09 05:27:53;;;;;;;15.68;13.82;;;;;;;;;;5054286;28;20522;-58
2023/05/09 05:30:19;;;;;;;18.52;16.30;;;;;;;;;;5054531;28;20021;-58
2023/05/09 05:32:45;;;;;;;20.92;16.13;;;;;;;;;;5054441;28;20025;-58
2023/05/09 05:35:11;;;;;;;16.73;15.02;;;;;;;;;;5054402;28;20033;-58
2023/05/09 05:37:41;;;;;;;19.50;16.58;;;;;;;;;;5054934;28;20087;-58
2023/05/09 05:40:07;;;;;;;15.80;14.13;;;;;;;;;;5054830;28;20040;-58
2023/05/09 05:42:33;;;;;;;17.77;15.45;;;;;;;;;;5054576;28;20486;-58
2023/05/09 05:45:05;;;;;;;18.05;15.68;;;;;;;;;;5054209;28;20166;-58
2023/05/09 05:47:32;;;;;;;18.52;15.57;;;;;;;;;;5054201;28;20029;-58
2023/05/09 05:49:58;;;;;;;15.20;13.63;;;;;;;;;;5054284;28;20033;-58
2023/05/09 05:52:25;;;;;;;15.65;14.05;;;;;;;;;;5054536;28;20463;-58
2023/05/09 05:54:51;;;;;;;17.75;15.52;;;;;;;;;;5053512;28;20082;-58
2023/05/09 05:57:17;;;;;;;17.08;15.35;;;;;;;;;;5054270;28;20029;-58
2023/05/09 05:59:43;;;;;;;18.58;15.43;;;;;;;;;;5053810;28;20079;-58
2023/05/09 06:02:09;;;;;;;16.85;15.05;;;;;;;;;;5053814;28;20021;-58
2023/05/09 06:04:35;;;;;;;17.42;14.93;;;;;;;;;;5053454;28;20063;-58
2023/05/09 06:07:01;;;;;;;18.55;16.65;;;;;;;;;;5053728;28;20029;-58
2023/05/09 06:09:27;;;;;;;18.38;15.55;;;;;;;;;;5054633;28;20451;-58
2023/05/09 06:11:53;;;;;;;18.10;16.17;;;;;;;;;;5053438;28;20021;-58
2023/05/09 06:14:19;;;;;;;19.58;15.05;;;;;;;;;;5053652;28;20375;-58
2023/05/09 06:16:45;;;;;;;16.75;15.05;;;;;;;;;;5053702;28;20387;-58
2023/05/09 06:19:11;;;;;;;18.45;15.57;;;;;;;;;;5054003;28;20029;-58
2023/05/09 06:21:37;;;;;;;16.02;14.38;;;;;;;;;;5053681;28;20494;-58
2023/05/09 06:24:03;;;;;;;18.75;16.85;;;;;;;;;;5053536;28;20102;-58
2023/05/09 06:26:29;;;;;;;18.00;14.88;;;;;;;;;;5054543;28;20075;-58
2023/05/09 06:28:55;;;;;;;17.52;15.80;;;;;;;;;;5053576;28;20036;-58
2023/05/09 06:31:21;;;;;;;15.70;14.20;;;;;;;;;;5053572;28;20021;-58
2023/05/09 06:33:47;;;;;;;16.15;14.45;;;;;;;;;;5053545;28;20053;-58
2023/05/09 06:36:13;;;;;;;15.10;13.55;;;;;;;;;;5054116;28;20494;-58
2023/05/09 06:38:39;;;;;;;16.23;14.57;;;;;;;;;;5053524;28;20425;-58
2023/05/09 06:41:05;;;;;;;17.80;14.13;;;;;;;;;;5053332;28;20055;-58
2023/05/09 06:43:31;;;;;;;17.20;15.07;;;;;;;;;;5053526;28;20025;-58
2023/05/09 06:45:57;;;;;;;20.85;13.25;;;;;;;;;;5054215;28;20037;-58
2023/05/09 06:48:23;;;;;;;25.75;16.30;;;;;;;;;;5053497;28;20455;-58
2023/05/09 06:50:49;;;;;;;18.40;14.68;;;;;;;;;;5053517;28;20025;-58
2023/05/09 06:53:15;;;;;;;16.23;13.93;;;;;;;;;;5053825;28;20074;-58
2023/05/09 06:55:41;;;;;;;17.13;15.32;;;;;;;;;;5053670;28;20077;-58
2023/05/09 06:58:07;;;;;;;17.50;15.70;;;;;;;;;;5053359;28;20029;-58
2023/05/09 07:00:34;;;;;;;19.30;14.50;;;;;;;;;;5053860;28;20078;-58
2023/05/09 07:03:00;;;;;;;17.23;14.60;;;;;;;;;;5053300;28;20051;-58
2023/05/09 07:05:26;;;;;;;14.63;13.10;;;;;;;;;;5053779;28;20119;-58
2023/05/09 07:07:53;;;;;;;16.38;14.75;;;;;;;;;;5053551;28;20036;-58
2023/05/09 07:10:21;;;;;;;15.48;13.52;;;;;;;;;;5053189;28;20029;-59
2023/05/09 07:12:47;;;;;;;15.23;13.65;;;;;;;;;;5053202;28;20033;-58
2023/05/09 07:15:13;;;;;;;14.70;12.45;;;;;;;;;;5053374;28;20049;-58
2023/05/09 07:17:39;;;;;;;16.15;12.80;;;;;;;;;;5053229;28;20021;-58
2023/05/09 07:20:05;;;;;;;16.92;14.73;;;;;;;;;;5057001;28;20111;-58
2023/05/09 07:22:31;;;;;;;17.02;13.90;;;;;;;;;;5057064;28;20029;-58
2023/05/09 07:24:57;;;;;;;17.88;15.00;;;;;;;;;;5057254;28;20485;-58
2023/05/09 07:27:23;;;;;;;18.73;14.38;;;;;;;;;;5057272;28;20028;-58
2023/05/09 07:29:51;;;;;;;16.48;14.23;;;;;;;;;;5057071;28;20017;-58
2023/05/09 07:32:17;;;;;;;15.63;14.05;;;;;;;;;;5057305;28;20048;-58
2023/05/09 07:34:43;;;;;;;16.00;14.35;;;;;;;;;;5056593;28;20447;-59
2023/05/09 07:37:09;;;;;;;15.38;13.82;;;;;;;;;;5057238;28;20029;-58
2023/05/09 07:39:35;;;;;;;20.15;14.68;;;;;;;;;;5056320;28;20033;-58
2023/05/09 07:42:01;;;;;;;16.40;14.52;;;;;;;;;;5056467;28;20021;-58
2023/05/09 07:44:27;;;;;;;15.55;13.93;;;;;;;;;;5056466;28;20021;-58
2023/05/09 07:46:54;;;;;;;14.38;12.85;;;;;;;;;;5056822;28;20048;-58
2023/05/09 07:49:20;;;;;;;13.15;11.85;;;;;;;;;;5057245;28;20103;-58
2023/05/09 07:51:46;;;;;;;14.02;12.52;;;;;;;;;;5056035;28;20463;-58
2023/05/09 07:54:12;;;;;;;14.52;13.02;;;;;;;;;;5056416;28;20059;-58
2023/05/09 07:56:38;;;;;;;17.48;12.65;;;;;;;;;;5056812;28;20075;-58
2023/05/09 07:59:04;;;;;;;16.08;12.93;;;;;;;;;;5056274;28;20017;-58
2023/05/09 08:01:30;;;;;;;16.27;12.75;;;;;;;;;;5056692;28;20098;-58
2023/05/09 08:03:56;;;;;;;14.10;12.68;;;;;;;;;;5056762;28;20020;-58
2023/05/09 08:06:22;;;;;;;14.55;13.07;;;;;;;;;;5056876;28;20036;-58
2023/05/09 08:08:48;;;;;;;14.52;12.98;;;;;;;;;;5056116;28;20021;-58
2023/05/09 08:11:14;;;;;;;15.00;13.40;;;;;;;;;;5056119;28;20021;-58
2023/05/09 08:13:40;;;;;;;14.65;12.93;;;;;;;;;;5056261;28;20021;-58
2023/05/09 08:16:06;;;;;;;15.07;13.18;;;;;;;;;;5055789;28;20075;-58
2023/05/09 08:18:32;;;;;;;12.45;11.27;;;;;;;;;;5055903;28;20100;-58
2023/05/09 08:20:58;;;;;;;14.00;12.02;;;;;;;;;;5055746;28;20021;-58
2023/05/09 08:23:25;;;;;;;13.38;11.98;;;;;;;;;;5056327;28;20048;-58
2023/05/09 08:25:54;;;;;;;14.20;12.85;;;;;;;;;;5056065;28;20025;-60
2023/05/09 08:28:22;;;;;;;12.70;10.97;;;;;;;;;;5055643;28;20116;-59
2023/05/09 08:30:48;;;;;;;12.93;11.65;;;;;;;;;;5055108;28;20024;-60
2023/05/09 08:33:14;;;;;;;16.52;11.90;;;;;;;;;;5056188;28;20036;-60
2023/05/09 08:35:40;;;;;;;13.70;11.77;;;;;;;;;;5056044;28;20029;-58
2023/05/09 08:38:06;;;;;;;13.07;10.73;;;;;;;;;;5056000;28;20025;-58
2023/05/09 08:40:36;;;;;;;13.30;11.52;;;;;;;;;;5056044;28;20064;-59
2023/05/09 08:43:02;;;;;;;15.60;13.68;;;;;;;;;;5055460;28;20090;-58
2023/05/09 08:45:30;;;;;;;15.48;11.60;;;;;;;;;;5055988;28;20062;-59
2023/05/09 08:47:56;;;;;;;16.00;13.10;;;;;;;;;;5055428;28;20025;-60
2023/05/09 08:50:22;;;;;;;14.50;11.65;;;;;;;;;;5055617;28;20375;-59
2023/05/09 08:52:48;;;;;;;15.32;12.25;;;;;;;;;;5055489;28;20051;-59
2023/05/09 08:55:14;;;;;;;13.35;11.68;;;;;;;;;;5055147;28;20271;-59
2023/05/09 08:57:40;;;;;;;15.05;13.15;;;;;;;;;;5055397;28;20028;-59
2023/05/09 09:00:10;;;;;;;13.43;12.07;;;;;;;;;;5054895;28;20159;-59
2023/05/09 09:02:36;;;;;;;12.27;10.98;;;;;;;;;;5055130;28;20048;-60
2023/05/09 09:05:03;;;;;;;14.88;11.43;;;;;;;;;;5054723;28;20033;-59
2023/05/09 09:07:30;;;;;;;11.73;10.52;;;;;;;;;;5055888;28;20025;-58
2023/05/09 09:09:57;;;;;;;12.05;10.43;;;;;;;;;;5055004;28;20029;-58
2023/05/09 09:12:23;;;;;;;11.95;10.00;;;;;;;;;;5055133;28;20071;-58
2023/05/09 09:14:52;;;;;;;11.48;10.27;;;;;;;;;;5055187;28;20478;-60
2023/05/09 09:17:19;;;;;;;12.23;10.07;;;;;;;;;;5055384;28;20044;-60
2023/05/09 09:19:47;;;;;;;11.63;10.43;;;;;;;;;;5055579;28;20119;-60
2023/05/09 09:22:15;;;;;;;13.10;10.18;;;;;;;;;;5054681;28;20017;-59
2023/05/09 09:24:41;;;;;;;13.02;11.27;;;;;;;;;;5054644;28;20032;-59
2023/05/09 09:27:07;;;;;;;11.57;9.05;;;;;;;;;;5055011;28;20021;-59
2023/05/09 09:29:34;;;;;;;11.32;10.13;;;;;;;;;;5054868;28;20055;-59
2023/05/09 09:32:03;;;;;;;11.50;10.23;;;;;;;;;;5054529;28;20096;-59
2023/05/09 09:34:29;;;;;;;11.60;9.80;;;;;;;;;;5054445;28;20032;-59
2023/05/09 09:36:55;;;;;;;9.65;8.75;;;;;;;;;;5054998;28;20024;-59
2023/05/09 09:39:21;;;;;;;13.02;10.85;;;;;;;;;;5055122;28;20509;-59
2023/05/09 09:41:47;;;;;;;10.82;9.63;;;;;;;;;;5053199;28;20024;-59
2023/05/09 09:44:15;;;;;;;11.13;10.02;;;;;;;;;;5054875;28;20098;-59
2023/05/09 09:46:49;;;;;;;11.25;10.05;;;;;;;;;;5054828;28;20067;-59
2023/05/09 09:49:19;;;;;;;11.52;10.13;;;;;;;;;;5055047;28;20037;-59
2023/05/09 09:51:48;;;;;;;12.85;11.32;;;;;;;;;;5054750;28;20029;-59
2023/05/09 09:54:14;;;;;;;12.23;9.82;;;;;;;;;;5054394;28;20349;-59
2023/05/09 09:56:41;;;;;;;11.65;9.60;;;;;;;;;;5054709;28;20025;-59
2023/05/09 09:59:08;;;;;;;11.93;10.15;;;;;;;;;;5054074;28;20111;-59
2023/05/09 10:01:34;;;;;;;12.80;10.18;;;;;;;;;;5054360;28;20021;-59
2023/05/09 10:04:02;;;;;;;11.85;10.05;;;;;;;;;;5053944;28;20141;-59
2023/05/09 10:06:28;;;;;;;11.60;10.32;;;;;;;;;;5054579;28;20389;-59
2023/05/09 10:08:54;;;;;;;11.48;10.13;;;;;;;;;;5053964;28;20025;-59
2023/05/09 10:11:20;;;;;;;11.63;10.32;;;;;;;;;;5053901;28;20027;-59
2023/05/09 10:13:46;;;;;;;10.27;9.25;;;;;;;;;;5053889;28;20170;-60
2023/05/09 10:16:12;;;;;;;10.20;9.20;;;;;;;;;;5054114;28;20546;-59
2023/05/09 10:18:39;;;;;;;10.48;9.48;;;;;;;;;;5054339;28;20017;-59
2023/05/09 10:21:05;;;;;;;9.80;8.52;;;;;;;;;;5053831;28;20032;-59
2023/05/09 10:23:34;;;;;;;11.43;10.40;;;;;;;;;;5053496;28;20017;-59
2023/05/09 10:26:05;;;;;;;11.60;10.35;;;;;;;;;;5054137;28;20040;-59
2023/05/09 10:28:32;;;;;;;11.05;9.88;;;;;;;;;;5053670;28;20021;-59
2023/05/09 10:31:14;;;;;;;11.60;10.25;;;;;;;;;;5053697;28;20025;-59
2023/05/09 10:33:42;;;;;;;12.02;10.75;;;;;;;;;;5053633;28;20483;-59
2023/05/09 10:36:08;;;;;;;12.10;10.80;;;;;;;;;;5054147;28;20040;-59
2023/05/09 10:38:34;;;;;;;11.18;9.13;;;;;;;;;;5054070;28;20025;-59
2023/05/09 10:41:00;;;;;;;11.40;10.27;;;;;;;;;;5053899;28;20060;-59
2023/05/09 10:43:27;;;;;;;13.38;10.77;;;;;;;;;;5053488;28;20021;-59
2023/05/09 10:45:53;;;;;;;13.43;11.25;;;;;;;;;;5054115;28;20374;-59
2023/05/09 10:48:19;;;;;;;10.18;8.98;;;;;;;;;;5054054;28;20048;-59
2023/05/09 10:50:46;;;;;;;10.30;9.25;;;;;;;;;;5053440;28;20104;-59
2023/05/09 10:53:17;;;;;;;9.60;8.60;;;;;;;;;;5054968;28;20020;-59
2023/05/09 10:55:46;;;;;;;8.75;7.85;;;;;;;;;;5058566;28;20064;-59
2023/05/09 10:58:30;;;;;;;9.05;8.15;;;;;;;;;;5057976;28;20410;-59
2023/05/09 11:00:58;;;;;;;9.40;7.40;;;;;;;;;;5057703;28;20107;-59
2023/05/09 11:03:25;;;;;;;8.93;6.28;;;;;;;;;;5057332;28;20025;-59
2023/05/09 11:05:52;;;;;;;8.85;7.47;;;;;;;;;;5057604;28;20483;-59
2023/05/09 11:08:18;;;;;;;7.95;7.15;;;;;;;;;;5057227;28;20033;-59
2023/05/09 11:10:44;;;;;;;9.57;7.97;;;;;;;;;;5057146;28;20025;-59
2023/05/09 11:13:10;;;;;;;8.90;7.10;;;;;;;;;;5057190;28;20029;-59
2023/05/09 11:15:49;;;;;;;8.38;7.10;;;;;;;;;;5057148;28;20099;-59
2023/05/09 11:18:15;;;;;;;7.25;6.55;;;;;;;;;;5057708;28;20032;-59
2023/05/09 11:20:45;;;;;;;7.10;5.07;;;;;;;;;;5057322;28;20475;-59
2023/05/09 11:23:11;;;;;;;5.45;4.95;;;;;;;;;;5056966;28;20021;-59
2023/05/09 11:25:38;;;;;;;8.30;6.25;;;;;;;;;;5057324;28;20394;-59
2023/05/09 11:28:05;;;;;;;7.00;4.55;;;;;;;;;;5056742;28;20071;-59
2023/05/09 11:30:39;;;;;;;5.38;3.90;;;;;;;;;;5057428;28;20109;-59
2023/05/09 11:33:05;;;;;;;5.13;4.35;;;;;;;;;;5057220;28;20028;-59
2023/05/09 11:35:32;;;;;;;6.68;4.55;;;;;;;;;;5056531;28;20445;-59
2023/05/09 11:38:00;;;;;;;5.13;3.70;;;;;;;;;;5056326;28;20099;-59
2023/05/09 11:40:26;;;;;;;6.45;4.78;;;;;;;;;;5056645;28;20443;-59
2023/05/09 11:42:54;;;;;;;4.15;3.67;;;;;;;;;;5056530;28;20459;-59
2023/05/09 11:45:20;;;;;;;3.90;3.05;;;;;;;;;;5057064;28;20032;-59
2023/05/09 11:47:47;;;;;;;3.88;3.33;;;;;;;;;;5056773;28;20033;-59
2023/05/09 11:50:14;;;;;;;3.35;2.65;;;;;;;;;;5056373;28;20074;-59
2023/05/09 11:52:41;;;;;;;4.25;3.33;;;;;;;;;;5056624;28;20021;-59
2023/05/09 11:55:07;;;;;;;4.45;3.90;;;;;;;;;;5056488;28;20588;-59
2023/05/09 11:57:34;;;;;;;3.85;2.78;;;;;;;;;;5056511;28;20020;-59
2023/05/09 12:00:01;;;;;;;3.63;3.03;;;;;;;;;;5056179;28;20050;-59
2023/05/09 12:02:27;;;;;;;3.45;2.85;;;;;;;;;;5056097;28;20040;-59
2023/05/09 12:04:53;;;;;;;3.10;2.70;;;;;;;;;;5055743;28;20175;-59
2023/05/09 12:07:19;;;;;;;3.05;2.15;;;;;;;;;;5057047;28;20032;-59
2023/05/09 12:09:48;;;;;;;3.03;2.10;;;;;;;;;;5055835;28;20375;-59
2023/05/09 12:12:16;;;;;;;3.83;2.22;;;;;;;;;;5056076;28;20094;-59
2023/05/09 12:14:42;;;;;;;5.28;2.50;;;;;;;;;;5055943;28;20048;-59
2023/05/09 12:17:08;;;;;;;3.05;2.33;;;;;;;;;;5056176;28;20370;-59
2023/05/09 12:19:35;;;;;;;2.47;1.83;;;;;;;;;;5056226;28;20029;-59
2023/05/09 12:22:02;;;;;;;2.67;2.00;;;;;;;;;;5055801;28;20083;-59
2023/05/09 12:24:29;;;;;;;3.10;1.95;;;;;;;;;;5055660;28;20082;-59
2023/05/09 12:26:56;;;;;;;2.08;1.35;;;;;;;;;;5056057;28;20115;-59
2023/05/09 12:29:22;;;;;;;2.88;1.73;;;;;;;;;;5055983;28;20109;-59
2023/05/09 12:31:48;;;;;;;2.20;1.50;;;;;;;;;;5055775;28;20025;-59
2023/05/09 12:34:15;;;;;;;2.30;1.70;;;;;;;;;;5055448;28;20024;-59
2023/05/09 12:36:49;;;;;;;1.80;1.17;;;;;;;;;;5055855;28;20066;-59
2023/05/09 12:39:17;;;;;;;1.83;1.15;;;;;;;;;;5056098;28;20420;-59
2023/05/09 12:41:46;;;;;;;2.10;1.20;;;;;;;;;;5055859;28;20100;-59
2023/05/09 12:44:22;;;;;;;2.30;1.35;;;;;;;;;;5055659;28;20048;-59
2023/05/09 12:47:01;;;;;;;1.90;1.30;;;;;;;;;;5055534;28;20032;-59
2023/05/09 12:49:27;;;;;;;3.15;1.85;;;;;;;;;;5055779;28;20037;-59
2023/05/09 12:51:54;;;;;;;2.92;2.17;;;;;;;;;;5055302;28;20033;-59
2023/05/09 12:54:21;;;;;;;2.60;1.50;;;;;;;;;;5055124;28;20029;-59
2023/05/09 12:56:47;;;;;;;2.47;1.95;;;;;;;;;;5055707;28;20090;-59
2023/05/09 12:59:16;;;;;;;2.92;1.75;;;;;;;;;;5054969;28;20352;-59
2023/05/09 13:01:42;;;;;;;2.80;1.73;;;;;;;;;;5055577;28;20398;-59
2023/05/09 13:04:10;;;;;;;2.28;1.60;;;;;;;;;;5055052;28;20017;-59
2023/05/09 13:06:46;;;;;;;2.35;1.55;;;;;;;;;;5055934;28;20096;-59
2023/05/09 13:09:13;;;;;;;3.58;2.30;;;;;;;;;;5055507;28;20021;-59
2023/05/09 13:11:39;;;;;;;2.83;1.80;;;;;;;;;;5054858;28;20060;-59
2023/05/09 13:14:05;;;;;;;1.70;1.17;;;;;;;;;;5054413;28;20021;-59
2023/05/09 13:16:31;;;;;;;3.22;1.48;;;;;;;;;;5055515;28;20116;-59
2023/05/09 13:18:57;;;;;;;2.90;1.48;;;;;;;;;;5055111;28;20017;-59
2023/05/09 13:21:23;;;;;;;2.70;2.00;;;;;;;;;;5055045;28;20036;-59
2023/05/09 13:23:50;;;;;;;2.20;1.58;;;;;;;;;;5054867;28;20070;-59
2023/05/09 13:26:15;;;;;;;6.05;1.70;;;;;;;;;;5054951;28;20025;-59
2023/05/09 13:28:41;;;;;;;2.80;2.03;;;;;;;;;;5054808;28;20031;-59
2023/05/09 13:31:07;;;;;;;2.70;1.98;;;;;;;;;;5054832;28;20018;-59
2023/05/09 13:33:33;;;;;;;2.72;1.95;;;;;;;;;;5054345;28;20021;-59
2023/05/09 13:35:59;;;;;;;3.70;2.15;;;;;;;;;;5055036;28;20115;-59
2023/05/09 13:38:25;;;;;;;2.40;1.58;;;;;;;;;;5054749;28;20467;-59
2023/05/09 13:40:51;;;;;;;4.18;1.73;;;;;;;;;;5054304;28;20037;-59
2023/05/09 13:43:17;;;;;;;2.45;1.80;;;;;;;;;;5054376;28;20017;-59
2023/05/09 13:45:43;;;;;;;3.42;1.85;;;;;;;;;;5054665;28;20450;-59
2023/05/09 13:48:10;;;;;;;2.35;1.50;;;;;;;;;;5054231;28;20103;-59
2023/05/09 13:50:36;;;;;;;5.90;1.80;;;;;;;;;;5054579;28;20071;-59
2023/05/09 13:53:02;;;;;;;2.65;1.77;;;;;;;;;;5054198;28;20463;-59
2023/05/09 13:55:29;;;;;;;2.78;1.45;;;;;;;;;;5054111;28;20086;-59
2023/05/09 13:57:55;;;;;;;2.58;1.83;;;;;;;;;;5054528;28;20032;-59
2023/05/09 14:00:23;;;;;;;2.95;2.30;;;;;;;;;;5054090;28;20451;-59
2023/05/09 14:02:49;;;;;;;2.70;1.73;;;;;;;;;;5054014;28;20024;-59
2023/05/09 14:05:15;;;;;;;2.58;1.67;;;;;;;;;;5053987;28;20021;-59
2023/05/09 14:07:41;;;;;;;2.55;1.83;;;;;;;;;;5053949;28;20021;-59
2023/05/09 14:10:07;;;;;;;3.03;2.00;;;;;;;;;;5054016;28;20036;-59
2023/05/09 14:12:33;;;;;;;2.20;1.67;;;;;;;;;;5053696;28;20119;-59
2023/05/09 14:15:00;;;;;;;3.05;2.13;;;;;;;;;;5053511;28;20136;-59
2023/05/09 14:17:26;;;;;;;2.20;1.55;;;;;;;;;;5053752;28;20029;-59
2023/05/09 14:19:52;;;;;;;2.65;1.73;;;;;;;;;;5053850;28;20025;-59
2023/05/09 14:22:18;;;;;;;2.60;1.58;;;;;;;;;;5054252;28;20017;-59